Valley International Airport
KHRL : rendu visible

Aérodrome :











RETROUVEZ-NOUS SUR...

 
LOGIN :

S'inscrire | Disclaimer

   EN    FR    IT 

 









Légende :    VFR   VFR Marginal   IFR   IFR Intensif   IFR Très Intensif
Visi : 
Plafond : 
>= 8 km
>= 3000ft
5 à 8 km
1000 à 3000 ft
1500m à 5 km
500 à 1000 ft
800 à 1500m
200 à 500 ft
< 800m
< 200 ft
Symboles :   Orages  Brouillard  Fortes neiges  Fortes précipitations  Vent > 20 kt






- Altitude de l'aérodrome : 36 ft
- Code IATA : HRL


KHRL - Valley International

DERNIER METAR :
  • 210752Z AUTO 17014KT 10SM -RA CLR 22/19 A2992 RMK AO2 SLP130 P0000 T02220194 TSNO $

METARs EXPIRÉS :
  • 210652Z AUTO 17012KT 10SM -RA CLR 22/19 A2993 RMK AO2 SLP135 P0000 T02220194 TSNO $

TAF KHRL
Valide du 21 à 06h jusqu'au 22 à 06h UTC


210531Z 2106/2206 16013KT P6SM FEW030 SCT250
FM211400 17017G24KT P6SM SCT050 SCT250
FM211600 18021G28KT P6SM BKN050 BKN250
FM220000 16013KT P6SM BKN250



MET'MAP, la Météo Aéronautique d'un coup d'oeil ! - Copyright ORBIFLY Décembre 2007 - Disclaimer

ORBIFLY MET'MAP TEAM :

Programmation & Développement : Alexandra Zaïnal
Conception & Développement : Baudouin d'Aumeries
Co-Programmation & Développement : Marc-Olivier Méhu
Soutien technique & logistique : Manuel Goepfert

Contact : metmap@orbifly.com




SOURCES & CREDITS :

   NOAA       Earth
Advisory